sensor_id;sensor_type;location;lat;lon;timestamp;P1;durP1;ratioP1;P2;durP2;ratioP2
26620;SDS011;14253;44.840;10.444;2023-07-13T00:00:34;18.15;;;3.67;;
26620;SDS011;14253;44.840;10.444;2023-07-13T00:03:01;10.65;;;2.53;;
26620;SDS011;14253;44.840;10.444;2023-07-13T00:05:28;11.63;;;2.72;;
26620;SDS011;14253;44.840;10.444;2023-07-13T00:07:54;8.00;;;2.20;;
26620;SDS011;14253;44.840;10.444;2023-07-13T00:10:20;11.48;;;2.20;;
26620;SDS011;14253;44.840;10.444;2023-07-13T00:12:47;11.40;;;1.75;;
26620;SDS011;14253;44.840;10.444;2023-07-13T00:15:15;8.85;;;1.80;;
26620;SDS011;14253;44.840;10.444;2023-07-13T00:17:51;6.68;;;1.98;;
26620;SDS011;14253;44.840;10.444;2023-07-13T00:20:19;10.45;;;1.83;;
26620;SDS011;14253;44.840;10.444;2023-07-13T00:22:50;3.28;;;1.42;;
26620;SDS011;14253;44.840;10.444;2023-07-13T00:25:21;5.57;;;1.27;;
26620;SDS011;14253;44.840;10.444;2023-07-13T00:27:49;5.95;;;1.40;;
26620;SDS011;14253;44.840;10.444;2023-07-13T00:30:17;4.25;;;1.25;;
26620;SDS011;14253;44.840;10.444;2023-07-13T00:32:43;4.95;;;1.50;;
26620;SDS011;14253;44.840;10.444;2023-07-13T00:35:09;3.40;;;1.27;;
26620;SDS011;14253;44.840;10.444;2023-07-13T00:37:35;7.18;;;1.67;;
26620;SDS011;14253;44.840;10.444;2023-07-13T00:40:04;5.80;;;1.50;;
26620;SDS011;14253;44.840;10.444;2023-07-13T00:42:32;3.67;;;1.05;;
26620;SDS011;14253;44.840;10.444;2023-07-13T00:47:32;2.90;;;1.17;;
26620;SDS011;14253;44.840;10.444;2023-07-13T00:49:59;3.50;;;1.10;;
26620;SDS011;14253;44.840;10.444;2023-07-13T00:52:26;10.77;;;1.92;;
26620;SDS011;14253;44.840;10.444;2023-07-13T00:54:53;4.40;;;1.15;;
26620;SDS011;14253;44.840;10.444;2023-07-13T00:57:21;3.97;;;1.10;;
26620;SDS011;14253;44.840;10.444;2023-07-13T00:59:47;4.70;;;1.02;;
26620;SDS011;14253;44.840;10.444;2023-07-13T01:02:17;3.50;;;1.35;;
26620;SDS011;14253;44.840;10.444;2023-07-13T01:04:43;6.10;;;1.52;;
26620;SDS011;14253;44.840;10.444;2023-07-13T01:07:10;4.30;;;1.10;;
26620;SDS011;14253;44.840;10.444;2023-07-13T01:09:37;4.22;;;1.58;;
26620;SDS011;14253;44.840;10.444;2023-07-13T01:12:03;5.55;;;1.33;;
26620;SDS011;14253;44.840;10.444;2023-07-13T01:14:30;7.38;;;2.63;;
26620;SDS011;14253;44.840;10.444;2023-07-13T01:16:56;3.78;;;1.38;;
26620;SDS011;14253;44.840;10.444;2023-07-13T01:22:05;5.35;;;1.33;;
26620;SDS011;14253;44.840;10.444;2023-07-13T01:24:37;4.43;;;1.63;;
26620;SDS011;14253;44.840;10.444;2023-07-13T01:27:04;3.28;;;1.30;;
26620;SDS011;14253;44.840;10.444;2023-07-13T01:29:32;4.70;;;1.40;;
26620;SDS011;14253;44.840;10.444;2023-07-13T01:31:59;5.13;;;1.38;;
26620;SDS011;14253;44.840;10.444;2023-07-13T01:34:26;7.13;;;1.73;;
26620;SDS011;14253;44.840;10.444;2023-07-13T01:36:52;4.35;;;1.30;;
26620;SDS011;14253;44.840;10.444;2023-07-13T01:39:21;5.20;;;1.10;;
26620;SDS011;14253;44.840;10.444;2023-07-13T01:41:48;5.00;;;1.48;;
26620;SDS011;14253;44.840;10.444;2023-07-13T01:44:14;4.10;;;1.20;;
26620;SDS011;14253;44.840;10.444;2023-07-13T01:46:40;2.50;;;1.13;;
26620;SDS011;14253;44.840;10.444;2023-07-13T01:49:06;4.85;;;1.35;;
26620;SDS011;14253;44.840;10.444;2023-07-13T01:51:32;3.05;;;1.38;;
26620;SDS011;14253;44.840;10.444;2023-07-13T01:53:58;5.57;;;1.58;;
26620;SDS011;14253;44.840;10.444;2023-07-13T01:56:24;3.63;;;1.30;;
26620;SDS011;14253;44.840;10.444;2023-07-13T01:58:50;8.88;;;1.48;;
26620;SDS011;14253;44.840;10.444;2023-07-13T02:01:17;6.18;;;1.65;;
26620;SDS011;14253;44.840;10.444;2023-07-13T02:03:43;3.80;;;1.42;;
26620;SDS011;14253;44.840;10.444;2023-07-13T02:06:09;4.95;;;1.30;;
26620;SDS011;14253;44.840;10.444;2023-07-13T02:08:36;6.25;;;1.67;;
26620;SDS011;14253;44.840;10.444;2023-07-13T02:11:03;4.85;;;1.50;;
26620;SDS011;14253;44.840;10.444;2023-07-13T02:13:29;5.25;;;1.70;;
26620;SDS011;14253;44.840;10.444;2023-07-13T02:15:55;5.78;;;1.65;;
26620;SDS011;14253;44.840;10.444;2023-07-13T02:18:21;8.70;;;1.70;;
26620;SDS011;14253;44.840;10.444;2023-07-13T02:20:47;7.43;;;1.35;;
26620;SDS011;14253;44.840;10.444;2023-07-13T02:23:13;2.78;;;1.52;;
26620;SDS011;14253;44.840;10.444;2023-07-13T02:25:39;5.85;;;1.50;;
26620;SDS011;14253;44.840;10.444;2023-07-13T02:28:05;3.30;;;1.45;;
26620;SDS011;14253;44.840;10.444;2023-07-13T02:30:31;8.05;;;1.90;;
26620;SDS011;14253;44.840;10.444;2023-07-13T02:32:57;4.32;;;2.10;;
26620;SDS011;14253;44.840;10.444;2023-07-13T02:35:23;6.10;;;1.52;;
26620;SDS011;14253;44.840;10.444;2023-07-13T02:37:49;3.72;;;1.40;;
26620;SDS011;14253;44.840;10.444;2023-07-13T02:40:15;2.50;;;1.40;;
26620;SDS011;14253;44.840;10.444;2023-07-13T02:42:41;5.50;;;1.75;;
26620;SDS011;14253;44.840;10.444;2023-07-13T02:45:07;6.85;;;1.60;;
26620;SDS011;14253;44.840;10.444;2023-07-13T02:47:35;5.40;;;1.75;;
26620;SDS011;14253;44.840;10.444;2023-07-13T02:50:01;5.68;;;1.85;;
26620;SDS011;14253;44.840;10.444;2023-07-13T02:52:29;4.20;;;2.10;;
26620;SDS011;14253;44.840;10.444;2023-07-13T02:54:55;5.05;;;1.73;;
26620;SDS011;14253;44.840;10.444;2023-07-13T02:57:21;5.97;;;1.90;;
26620;SDS011;14253;44.840;10.444;2023-07-13T02:59:47;7.38;;;1.92;;
26620;SDS011;14253;44.840;10.444;2023-07-13T03:02:13;6.45;;;1.95;;
26620;SDS011;14253;44.840;10.444;2023-07-13T03:04:38;3.08;;;1.48;;
26620;SDS011;14253;44.840;10.444;2023-07-13T03:07:06;5.13;;;2.10;;
26620;SDS011;14253;44.840;10.444;2023-07-13T03:09:35;4.65;;;1.75;;
26620;SDS011;14253;44.840;10.444;2023-07-13T03:12:04;6.68;;;1.80;;
26620;SDS011;14253;44.840;10.444;2023-07-13T03:14:32;5.43;;;1.70;;
26620;SDS011;14253;44.840;10.444;2023-07-13T03:16:59;3.75;;;1.50;;
26620;SDS011;14253;44.840;10.444;2023-07-13T03:19:29;6.55;;;1.55;;
26620;SDS011;14253;44.840;10.444;2023-07-13T03:21:55;5.37;;;1.87;;
26620;SDS011;14253;44.840;10.444;2023-07-13T03:24:22;3.22;;;1.48;;
26620;SDS011;14253;44.840;10.444;2023-07-13T03:26:50;4.60;;;1.90;;
26620;SDS011;14253;44.840;10.444;2023-07-13T03:29:17;3.72;;;1.85;;
26620;SDS011;14253;44.840;10.444;2023-07-13T03:31:44;6.22;;;1.80;;
26620;SDS011;14253;44.840;10.444;2023-07-13T03:34:10;3.80;;;1.55;;
26620;SDS011;14253;44.840;10.444;2023-07-13T03:36:37;6.55;;;2.10;;
26620;SDS011;14253;44.840;10.444;2023-07-13T03:39:07;5.63;;;1.65;;
26620;SDS011;14253;44.840;10.444;2023-07-13T03:41:46;8.15;;;2.10;;
26620;SDS011;14253;44.840;10.444;2023-07-13T03:44:13;7.40;;;2.17;;
26620;SDS011;14253;44.840;10.444;2023-07-13T03:46:41;5.03;;;1.75;;
26620;SDS011;14253;44.840;10.444;2023-07-13T03:49:07;6.05;;;1.92;;
26620;SDS011;14253;44.840;10.444;2023-07-13T03:51:34;6.60;;;1.60;;
26620;SDS011;14253;44.840;10.444;2023-07-13T03:54:00;3.55;;;1.55;;
26620;SDS011;14253;44.840;10.444;2023-07-13T03:56:28;7.60;;;2.10;;
26620;SDS011;14253;44.840;10.444;2023-07-13T03:58:55;8.63;;;2.35;;
26620;SDS011;14253;44.840;10.444;2023-07-13T04:01:23;7.03;;;2.00;;
26620;SDS011;14253;44.840;10.444;2023-07-13T04:03:52;8.88;;;2.53;;
26620;SDS011;14253;44.840;10.444;2023-07-13T04:06:22;7.93;;;2.35;;
26620;SDS011;14253;44.840;10.444;2023-07-13T04:08:53;11.23;;;3.65;;
26620;SDS011;14253;44.840;10.444;2023-07-13T04:11:21;9.18;;;2.70;;
26620;SDS011;14253;44.840;10.444;2023-07-13T04:13:49;11.45;;;3.00;;
26620;SDS011;14253;44.840;10.444;2023-07-13T04:16:16;8.38;;;2.88;;
26620;SDS011;14253;44.840;10.444;2023-07-13T04:18:43;7.00;;;2.80;;
26620;SDS011;14253;44.840;10.444;2023-07-13T04:21:10;8.02;;;2.83;;
26620;SDS011;14253;44.840;10.444;2023-07-13T04:23:37;11.80;;;2.60;;
26620;SDS011;14253;44.840;10.444;2023-07-13T04:26:04;8.15;;;2.42;;
26620;SDS011;14253;44.840;10.444;2023-07-13T04:28:31;7.88;;;2.40;;
26620;SDS011;14253;44.840;10.444;2023-07-13T04:30:57;4.97;;;2.35;;
26620;SDS011;14253;44.840;10.444;2023-07-13T04:33:23;9.45;;;2.97;;
26620;SDS011;14253;44.840;10.444;2023-07-13T04:35:50;7.63;;;2.30;;
26620;SDS011;14253;44.840;10.444;2023-07-13T04:38:20;6.28;;;2.75;;
26620;SDS011;14253;44.840;10.444;2023-07-13T04:40:46;12.05;;;2.97;;
26620;SDS011;14253;44.840;10.444;2023-07-13T04:43:13;10.98;;;3.10;;
26620;SDS011;14253;44.840;10.444;2023-07-13T04:45:39;7.65;;;2.40;;
26620;SDS011;14253;44.840;10.444;2023-07-13T04:48:05;13.23;;;3.22;;
26620;SDS011;14253;44.840;10.444;2023-07-13T04:50:31;7.80;;;2.65;;
26620;SDS011;14253;44.840;10.444;2023-07-13T04:52:57;11.43;;;3.10;;
26620;SDS011;14253;44.840;10.444;2023-07-13T04:55:23;8.27;;;2.60;;
26620;SDS011;14253;44.840;10.444;2023-07-13T04:57:49;8.35;;;2.40;;
26620;SDS011;14253;44.840;10.444;2023-07-13T05:00:15;6.72;;;2.45;;
26620;SDS011;14253;44.840;10.444;2023-07-13T05:02:43;10.05;;;2.67;;
26620;SDS011;14253;44.840;10.444;2023-07-13T05:05:10;10.63;;;2.75;;
26620;SDS011;14253;44.840;10.444;2023-07-13T05:07:36;7.57;;;2.45;;
26620;SDS011;14253;44.840;10.444;2023-07-13T05:10:02;7.18;;;2.08;;
26620;SDS011;14253;44.840;10.444;2023-07-13T05:12:29;13.90;;;2.22;;
26620;SDS011;14253;44.840;10.444;2023-07-13T05:14:56;4.93;;;2.25;;
26620;SDS011;14253;44.840;10.444;2023-07-13T05:17:22;7.70;;;2.45;;
26620;SDS011;14253;44.840;10.444;2023-07-13T05:19:47;8.32;;;2.30;;
26620;SDS011;14253;44.840;10.444;2023-07-13T05:22:17;6.40;;;2.50;;
26620;SDS011;14253;44.840;10.444;2023-07-13T05:25:07;11.40;;;2.75;;
26620;SDS011;14253;44.840;10.444;2023-07-13T05:27:36;8.98;;;2.42;;
26620;SDS011;14253;44.840;10.444;2023-07-13T05:30:02;8.05;;;2.22;;
26620;SDS011;14253;44.840;10.444;2023-07-13T05:32:29;10.30;;;2.80;;
26620;SDS011;14253;44.840;10.444;2023-07-13T05:34:55;5.70;;;2.60;;
26620;SDS011;14253;44.840;10.444;2023-07-13T05:37:21;10.57;;;2.05;;
26620;SDS011;14253;44.840;10.444;2023-07-13T05:39:47;5.07;;;2.05;;
26620;SDS011;14253;44.840;10.444;2023-07-13T05:42:13;5.30;;;2.20;;
26620;SDS011;14253;44.840;10.444;2023-07-13T05:44:40;5.57;;;1.80;;
26620;SDS011;14253;44.840;10.444;2023-07-13T05:47:06;6.30;;;2.28;;
26620;SDS011;14253;44.840;10.444;2023-07-13T05:49:32;5.47;;;1.45;;
26620;SDS011;14253;44.840;10.444;2023-07-13T05:51:58;9.32;;;1.83;;
26620;SDS011;14253;44.840;10.444;2023-07-13T05:54:24;8.48;;;1.95;;
26620;SDS011;14253;44.840;10.444;2023-07-13T05:56:50;10.60;;;2.03;;
26620;SDS011;14253;44.840;10.444;2023-07-13T05:59:17;7.93;;;2.17;;
26620;SDS011;14253;44.840;10.444;2023-07-13T06:01:43;4.13;;;1.50;;
26620;SDS011;14253;44.840;10.444;2023-07-13T06:04:09;5.38;;;1.90;;
26620;SDS011;14253;44.840;10.444;2023-07-13T06:06:34;10.93;;;2.10;;
26620;SDS011;14253;44.840;10.444;2023-07-13T06:09:01;6.97;;;1.80;;
26620;SDS011;14253;44.840;10.444;2023-07-13T06:11:27;10.15;;;2.08;;
26620;SDS011;14253;44.840;10.444;2023-07-13T06:13:55;4.93;;;1.83;;
26620;SDS011;14253;44.840;10.444;2023-07-13T06:16:21;5.03;;;2.20;;
26620;SDS011;14253;44.840;10.444;2023-07-13T06:18:48;8.85;;;2.35;;
26620;SDS011;14253;44.840;10.444;2023-07-13T06:21:15;12.45;;;2.40;;
26620;SDS011;14253;44.840;10.444;2023-07-13T06:23:43;8.90;;;3.00;;
26620;SDS011;14253;44.840;10.444;2023-07-13T06:26:16;15.27;;;2.33;;
26620;SDS011;14253;44.840;10.444;2023-07-13T06:28:48;7.07;;;2.50;;
26620;SDS011;14253;44.840;10.444;2023-07-13T06:31:15;9.50;;;3.28;;
26620;SDS011;14253;44.840;10.444;2023-07-13T06:33:42;9.55;;;2.35;;
26620;SDS011;14253;44.840;10.444;2023-07-13T06:36:09;9.52;;;2.35;;
26620;SDS011;14253;44.840;10.444;2023-07-13T06:38:35;5.97;;;2.47;;
26620;SDS011;14253;44.840;10.444;2023-07-13T06:41:01;7.28;;;3.20;;
26620;SDS011;14253;44.840;10.444;2023-07-13T06:43:28;8.95;;;2.08;;
26620;SDS011;14253;44.840;10.444;2023-07-13T06:45:55;6.53;;;2.70;;
26620;SDS011;14253;44.840;10.444;2023-07-13T06:48:21;10.65;;;2.60;;
26620;SDS011;14253;44.840;10.444;2023-07-13T06:50:48;9.05;;;3.20;;
26620;SDS011;14253;44.840;10.444;2023-07-13T06:53:15;11.15;;;2.80;;
26620;SDS011;14253;44.840;10.444;2023-07-13T06:55:43;7.90;;;3.03;;
26620;SDS011;14253;44.840;10.444;2023-07-13T06:58:10;11.68;;;2.78;;
26620;SDS011;14253;44.840;10.444;2023-07-13T07:00:36;10.20;;;3.15;;
26620;SDS011;14253;44.840;10.444;2023-07-13T07:03:05;8.75;;;4.13;;
26620;SDS011;14253;44.840;10.444;2023-07-13T07:05:32;12.18;;;3.42;;
26620;SDS011;14253;44.840;10.444;2023-07-13T07:07:59;8.57;;;3.72;;
26620;SDS011;14253;44.840;10.444;2023-07-13T07:10:26;9.30;;;3.92;;
26620;SDS011;14253;44.840;10.444;2023-07-13T07:12:55;7.53;;;3.30;;
26620;SDS011;14253;44.840;10.444;2023-07-13T07:15:21;14.57;;;4.20;;
26620;SDS011;14253;44.840;10.444;2023-07-13T07:17:46;9.15;;;3.90;;
26620;SDS011;14253;44.840;10.444;2023-07-13T07:20:12;9.02;;;3.65;;
26620;SDS011;14253;44.840;10.444;2023-07-13T07:22:38;9.13;;;3.05;;
26620;SDS011;14253;44.840;10.444;2023-07-13T07:25:04;14.65;;;4.07;;
26620;SDS011;14253;44.840;10.444;2023-07-13T07:27:30;10.68;;;3.38;;
26620;SDS011;14253;44.840;10.444;2023-07-13T07:29:57;7.13;;;3.10;;
26620;SDS011;14253;44.840;10.444;2023-07-13T07:32:24;7.95;;;3.05;;
26620;SDS011;14253;44.840;10.444;2023-07-13T07:34:50;12.85;;;3.70;;
26620;SDS011;14253;44.840;10.444;2023-07-13T07:37:16;9.98;;;3.70;;
26620;SDS011;14253;44.840;10.444;2023-07-13T07:39:42;9.95;;;3.75;;
26620;SDS011;14253;44.840;10.444;2023-07-13T07:42:11;9.77;;;4.38;;
26620;SDS011;14253;44.840;10.444;2023-07-13T07:44:40;12.57;;;3.88;;
26620;SDS011;14253;44.840;10.444;2023-07-13T07:47:06;13.25;;;4.40;;
26620;SDS011;14253;44.840;10.444;2023-07-13T07:49:34;11.38;;;4.07;;
26620;SDS011;14253;44.840;10.444;2023-07-13T07:52:00;12.63;;;4.10;;
26620;SDS011;14253;44.840;10.444;2023-07-13T07:54:26;9.32;;;4.13;;
26620;SDS011;14253;44.840;10.444;2023-07-13T07:56:53;10.60;;;3.63;;
26620;SDS011;14253;44.840;10.444;2023-07-13T07:59:19;9.55;;;3.22;;
26620;SDS011;14253;44.840;10.444;2023-07-13T08:01:45;9.35;;;3.15;;
26620;SDS011;14253;44.840;10.444;2023-07-13T08:04:13;11.77;;;3.85;;
26620;SDS011;14253;44.840;10.444;2023-07-13T08:06:39;9.55;;;3.55;;
26620;SDS011;14253;44.840;10.444;2023-07-13T08:09:05;6.07;;;3.13;;
26620;SDS011;14253;44.840;10.444;2023-07-13T08:11:31;8.70;;;3.05;;
26620;SDS011;14253;44.840;10.444;2023-07-13T08:13:57;7.90;;;2.50;;
26620;SDS011;14253;44.840;10.444;2023-07-13T08:16:23;9.68;;;2.78;;
26620;SDS011;14253;44.840;10.444;2023-07-13T08:18:49;5.22;;;2.65;;
26620;SDS011;14253;44.840;10.444;2023-07-13T08:21:16;6.95;;;2.92;;
26620;SDS011;14253;44.840;10.444;2023-07-13T08:23:42;19.58;;;4.03;;
26620;SDS011;14253;44.840;10.444;2023-07-13T08:26:09;8.32;;;3.30;;
26620;SDS011;14253;44.840;10.444;2023-07-13T08:28:35;16.73;;;4.13;;
26620;SDS011;14253;44.840;10.444;2023-07-13T08:31:05;11.88;;;4.13;;
26620;SDS011;14253;44.840;10.444;2023-07-13T08:33:33;11.20;;;4.18;;
26620;SDS011;14253;44.840;10.444;2023-07-13T08:36:01;15.25;;;4.55;;
26620;SDS011;14253;44.840;10.444;2023-07-13T08:38:27;12.00;;;3.85;;
26620;SDS011;14253;44.840;10.444;2023-07-13T08:40:53;10.27;;;4.63;;
26620;SDS011;14253;44.840;10.444;2023-07-13T08:43:28;10.15;;;5.47;;
26620;SDS011;14253;44.840;10.444;2023-07-13T08:46:01;14.95;;;6.13;;
26620;SDS011;14253;44.840;10.444;2023-07-13T08:48:45;18.10;;;5.57;;
26620;SDS011;14253;44.840;10.444;2023-07-13T08:51:35;16.90;;;4.82;;
26620;SDS011;14253;44.840;10.444;2023-07-13T08:54:56;11.95;;;4.25;;
26620;SDS011;14253;44.840;10.444;2023-07-13T08:57:03;8.57;;;4.30;;
26620;SDS011;14253;44.840;10.444;2023-07-13T08:59:37;6.05;;;3.45;;
26620;SDS011;14253;44.840;10.444;2023-07-13T09:02:14;9.98;;;3.80;;
26620;SDS011;14253;44.840;10.444;2023-07-13T09:04:56;9.07;;;3.55;;
26620;SDS011;14253;44.840;10.444;2023-07-13T09:10:18;21.05;;;3.78;;
26620;SDS011;14253;44.840;10.444;2023-07-13T09:15:26;12.40;;;4.82;;
26620;SDS011;14253;44.840;10.444;2023-07-13T09:18:04;10.48;;;5.40;;
26620;SDS011;14253;44.840;10.444;2023-07-13T09:20:54;10.38;;;5.00;;
26620;SDS011;14253;44.840;10.444;2023-07-13T09:23:37;15.48;;;5.32;;
26620;SDS011;14253;44.840;10.444;2023-07-13T09:28:45;12.00;;;4.47;;
26620;SDS011;14253;44.840;10.444;2023-07-13T09:31:33;10.98;;;4.53;;
26620;SDS011;14253;44.840;10.444;2023-07-13T09:34:12;12.07;;;3.75;;
26620;SDS011;14253;44.840;10.444;2023-07-13T09:36:38;10.15;;;4.80;;
26620;SDS011;14253;44.840;10.444;2023-07-13T09:41:41;8.30;;;3.65;;
26620;SDS011;14253;44.840;10.444;2023-07-13T09:44:29;12.95;;;4.20;;
26620;SDS011;14253;44.840;10.444;2023-07-13T09:46:59;12.35;;;3.92;;
26620;SDS011;14253;44.840;10.444;2023-07-13T09:49:25;6.68;;;3.63;;
26620;SDS011;14253;44.840;10.444;2023-07-13T09:51:59;11.25;;;3.67;;
26620;SDS011;14253;44.840;10.444;2023-07-13T09:54:36;14.38;;;4.20;;
26620;SDS011;14253;44.840;10.444;2023-07-13T09:57:03;10.35;;;3.88;;
26620;SDS011;14253;44.840;10.444;2023-07-13T09:59:51;7.35;;;3.70;;
26620;SDS011;14253;44.840;10.444;2023-07-13T10:04:56;10.77;;;4.22;;
26620;SDS011;14253;44.840;10.444;2023-07-13T10:07:30;8.65;;;4.15;;
26620;SDS011;14253;44.840;10.444;2023-07-13T10:09:58;6.68;;;4.03;;
26620;SDS011;14253;44.840;10.444;2023-07-13T10:12:26;9.48;;;4.00;;
26620;SDS011;14253;44.840;10.444;2023-07-13T10:14:54;6.35;;;3.75;;
26620;SDS011;14253;44.840;10.444;2023-07-13T10:17:29;7.70;;;3.10;;
26620;SDS011;14253;44.840;10.444;2023-07-13T10:19:58;6.55;;;3.70;;
26620;SDS011;14253;44.840;10.444;2023-07-13T10:22:36;8.20;;;3.20;;
26620;SDS011;14253;44.840;10.444;2023-07-13T10:25:23;7.43;;;3.00;;
26620;SDS011;14253;44.840;10.444;2023-07-13T10:27:51;6.82;;;3.05;;
26620;SDS011;14253;44.840;10.444;2023-07-13T10:30:21;5.90;;;3.33;;
26620;SDS011;14253;44.840;10.444;2023-07-13T10:32:52;5.95;;;3.75;;
26620;SDS011;14253;44.840;10.444;2023-07-13T10:35:19;5.90;;;3.50;;
26620;SDS011;14253;44.840;10.444;2023-07-13T10:37:49;8.05;;;3.78;;
26620;SDS011;14253;44.840;10.444;2023-07-13T10:40:30;8.52;;;3.40;;
26620;SDS011;14253;44.840;10.444;2023-07-13T10:43:02;10.38;;;3.85;;
26620;SDS011;14253;44.840;10.444;2023-07-13T10:45:34;9.18;;;3.00;;
26620;SDS011;14253;44.840;10.444;2023-07-13T10:48:02;9.43;;;3.33;;
26620;SDS011;14253;44.840;10.444;2023-07-13T10:50:30;7.88;;;3.30;;
26620;SDS011;14253;44.840;10.444;2023-07-13T10:53:15;7.90;;;3.38;;
26620;SDS011;14253;44.840;10.444;2023-07-13T10:58:22;6.30;;;3.65;;
26620;SDS011;14253;44.840;10.444;2023-07-13T11:01:27;9.57;;;3.90;;
26620;SDS011;14253;44.840;10.444;2023-07-13T11:03:50;6.75;;;3.00;;
26620;SDS011;14253;44.840;10.444;2023-07-13T11:12:49;6.90;;;3.55;;
26620;SDS011;14253;44.840;10.444;2023-07-13T11:15:11;10.35;;;3.90;;
26620;SDS011;14253;44.840;10.444;2023-07-13T11:17:51;4.85;;;3.30;;
26620;SDS011;14253;44.840;10.444;2023-07-13T11:20:39;9.77;;;4.05;;
26620;SDS011;14253;44.840;10.444;2023-07-13T11:25:37;10.65;;;4.03;;
26620;SDS011;14253;44.840;10.444;2023-07-13T11:28:05;9.25;;;4.22;;
26620;SDS011;14253;44.840;10.444;2023-07-13T11:30:43;10.73;;;4.47;;
26620;SDS011;14253;44.840;10.444;2023-07-13T11:33:17;9.45;;;4.20;;
26620;SDS011;14253;44.840;10.444;2023-07-13T11:38:39;14.80;;;4.47;;
26620;SDS011;14253;44.840;10.444;2023-07-13T11:41:17;6.88;;;4.18;;
26620;SDS011;14253;44.840;10.444;2023-07-13T11:43:50;8.52;;;4.28;;
26620;SDS011;14253;44.840;10.444;2023-07-13T11:46:23;8.85;;;4.97;;
26620;SDS011;14253;44.840;10.444;2023-07-13T11:48:52;17.08;;;3.65;;
26620;SDS011;14253;44.840;10.444;2023-07-13T11:51:30;10.50;;;4.30;;
26620;SDS011;14253;44.840;10.444;2023-07-13T11:54:00;10.43;;;4.63;;
26620;SDS011;14253;44.840;10.444;2023-07-13T11:56:55;7.38;;;3.55;;
26620;SDS011;14253;44.840;10.444;2023-07-13T11:59:23;10.65;;;4.10;;
26620;SDS011;14253;44.840;10.444;2023-07-13T12:01:51;7.00;;;3.35;;
26620;SDS011;14253;44.840;10.444;2023-07-13T12:04:29;12.18;;;4.57;;
26620;SDS011;14253;44.840;10.444;2023-07-13T12:06:58;14.13;;;4.30;;
26620;SDS011;14253;44.840;10.444;2023-07-13T12:09:37;8.27;;;3.47;;
26620;SDS011;14253;44.840;10.444;2023-07-13T12:12:08;10.00;;;4.95;;
26620;SDS011;14253;44.840;10.444;2023-07-13T12:14:40;11.73;;;4.13;;
26620;SDS011;14253;44.840;10.444;2023-07-13T12:17:11;17.67;;;4.90;;
26620;SDS011;14253;44.840;10.444;2023-07-13T12:19:43;14.48;;;4.85;;
26620;SDS011;14253;44.840;10.444;2023-07-13T12:22:12;8.15;;;3.92;;
26620;SDS011;14253;44.840;10.444;2023-07-13T12:24:43;13.40;;;4.90;;
26620;SDS011;14253;44.840;10.444;2023-07-13T12:27:18;17.77;;;6.15;;
26620;SDS011;14253;44.840;10.444;2023-07-13T12:32:42;14.43;;;6.22;;
26620;SDS011;14253;44.840;10.444;2023-07-13T12:35:19;14.45;;;5.47;;
26620;SDS011;14253;44.840;10.444;2023-07-13T12:37:45;15.50;;;6.47;;
26620;SDS011;14253;44.840;10.444;2023-07-13T12:40:13;10.95;;;5.57;;
26620;SDS011;14253;44.840;10.444;2023-07-13T12:42:48;11.98;;;4.97;;
26620;SDS011;14253;44.840;10.444;2023-07-13T12:45:20;13.23;;;4.45;;
26620;SDS011;14253;44.840;10.444;2023-07-13T12:47:55;15.55;;;5.47;;
26620;SDS011;14253;44.840;10.444;2023-07-13T12:50:39;15.02;;;5.88;;
26620;SDS011;14253;44.840;10.444;2023-07-13T12:53:18;14.95;;;5.50;;
26620;SDS011;14253;44.840;10.444;2023-07-13T12:55:49;15.90;;;6.20;;
26620;SDS011;14253;44.840;10.444;2023-07-13T12:58:27;14.75;;;5.93;;
26620;SDS011;14253;44.840;10.444;2023-07-13T13:01:04;14.05;;;5.88;;
26620;SDS011;14253;44.840;10.444;2023-07-13T13:03:37;15.55;;;5.10;;
26620;SDS011;14253;44.840;10.444;2023-07-13T13:08:48;15.68;;;5.63;;
26620;SDS011;14253;44.840;10.444;2023-07-13T13:11:16;10.93;;;4.43;;
26620;SDS011;14253;44.840;10.444;2023-07-13T13:13:44;15.77;;;4.80;;
26620;SDS011;14253;44.840;10.444;2023-07-13T13:16:14;20.40;;;6.18;;
26620;SDS011;14253;44.840;10.444;2023-07-13T13:18:48;12.50;;;5.32;;
26620;SDS011;14253;44.840;10.444;2023-07-13T13:21:17;16.98;;;5.55;;
26620;SDS011;14253;44.840;10.444;2023-07-13T13:23:43;13.65;;;5.20;;
26620;SDS011;14253;44.840;10.444;2023-07-13T13:26:11;13.85;;;5.40;;
26620;SDS011;14253;44.840;10.444;2023-07-13T13:28:38;14.85;;;5.72;;
26620;SDS011;14253;44.840;10.444;2023-07-13T13:31:04;11.63;;;5.18;;
26620;SDS011;14253;44.840;10.444;2023-07-13T13:33:31;16.65;;;4.97;;
26620;SDS011;14253;44.840;10.444;2023-07-13T13:35:58;11.63;;;4.80;;
26620;SDS011;14253;44.840;10.444;2023-07-13T13:38:25;13.98;;;5.57;;
26620;SDS011;14253;44.840;10.444;2023-07-13T13:40:52;15.90;;;4.60;;
26620;SDS011;14253;44.840;10.444;2023-07-13T13:43:22;13.25;;;4.75;;
26620;SDS011;14253;44.840;10.444;2023-07-13T13:45:55;13.05;;;4.65;;
26620;SDS011;14253;44.840;10.444;2023-07-13T13:48:30;14.57;;;4.67;;
26620;SDS011;14253;44.840;10.444;2023-07-13T13:50:58;19.15;;;4.55;;
26620;SDS011;14253;44.840;10.444;2023-07-13T13:53:26;9.95;;;3.85;;
26620;SDS011;14253;44.840;10.444;2023-07-13T13:55:53;15.70;;;4.80;;
26620;SDS011;14253;44.840;10.444;2023-07-13T13:58:20;17.65;;;5.00;;
26620;SDS011;14253;44.840;10.444;2023-07-13T14:00:47;11.40;;;4.38;;
26620;SDS011;14253;44.840;10.444;2023-07-13T14:03:18;15.77;;;4.97;;
26620;SDS011;14253;44.840;10.444;2023-07-13T14:05:46;15.43;;;4.30;;
26620;SDS011;14253;44.840;10.444;2023-07-13T14:08:17;13.15;;;4.63;;
26620;SDS011;14253;44.840;10.444;2023-07-13T14:10:45;10.75;;;4.43;;
26620;SDS011;14253;44.840;10.444;2023-07-13T14:13:24;14.95;;;4.18;;
26620;SDS011;14253;44.840;10.444;2023-07-13T14:15:53;16.92;;;4.65;;
26620;SDS011;14253;44.840;10.444;2023-07-13T14:18:20;13.40;;;4.10;;
26620;SDS011;14253;44.840;10.444;2023-07-13T14:20:46;13.85;;;4.53;;
26620;SDS011;14253;44.840;10.444;2023-07-13T14:23:14;9.95;;;4.75;;
26620;SDS011;14253;44.840;10.444;2023-07-13T14:25:43;14.40;;;5.38;;
26620;SDS011;14253;44.840;10.444;2023-07-13T14:28:19;13.25;;;4.32;;
26620;SDS011;14253;44.840;10.444;2023-07-13T14:30:48;9.65;;;4.57;;
26620;SDS011;14253;44.840;10.444;2023-07-13T14:33:15;11.15;;;4.63;;
26620;SDS011;14253;44.840;10.444;2023-07-13T14:35:41;15.07;;;4.85;;
26620;SDS011;14253;44.840;10.444;2023-07-13T14:38:14;18.08;;;4.47;;
26620;SDS011;14253;44.840;10.444;2023-07-13T14:40:44;14.65;;;5.05;;
26620;SDS011;14253;44.840;10.444;2023-07-13T14:43:12;12.55;;;4.80;;
26620;SDS011;14253;44.840;10.444;2023-07-13T14:45:41;10.60;;;4.37;;
26620;SDS011;14253;44.840;10.444;2023-07-13T14:48:13;13.50;;;4.50;;
26620;SDS011;14253;44.840;10.444;2023-07-13T14:50:41;17.20;;;4.88;;
26620;SDS011;14253;44.840;10.444;2023-07-13T14:53:11;10.57;;;5.03;;
26620;SDS011;14253;44.840;10.444;2023-07-13T14:55:37;10.80;;;4.27;;
26620;SDS011;14253;44.840;10.444;2023-07-13T14:58:03;14.55;;;4.65;;
26620;SDS011;14253;44.840;10.444;2023-07-13T15:00:29;15.32;;;5.18;;
26620;SDS011;14253;44.840;10.444;2023-07-13T15:02:57;14.45;;;4.60;;
26620;SDS011;14253;44.840;10.444;2023-07-13T15:05:25;13.98;;;4.40;;
26620;SDS011;14253;44.840;10.444;2023-07-13T15:07:56;11.80;;;4.47;;
26620;SDS011;14253;44.840;10.444;2023-07-13T15:10:31;17.13;;;3.92;;
26620;SDS011;14253;44.840;10.444;2023-07-13T15:13:01;10.43;;;4.82;;
26620;SDS011;14253;44.840;10.444;2023-07-13T15:15:40;13.38;;;4.43;;
26620;SDS011;14253;44.840;10.444;2023-07-13T15:18:12;10.13;;;4.20;;